Time;durP1;ratioP1;P1;durP2;ratioP2;P2;SDS_P1;SDS_P2;PMS_P1;PMS_P2;Temp;Humidity;BMP_temperature;BMP_pressure;BME280_temperature;BME280_humidity;BME280_pressure;Samples;Min_cycle;Max_cycle;Signal;HPM_P1;HPM_P2
2022/12/15 00:38:57;;;;;;;26.67;16.53;;;2.10;99.90;;;;;;5030717;28;20522;-76
2022/12/15 00:41:23;;;;;;;26.67;18.60;;;2.10;99.90;;;;;;5030476;28;20548;-77
2022/12/15 00:43:48;;;;;;;24.77;16.77;;;2.10;99.90;;;;;;5030254;28;20203;-77
2022/12/15 00:48:58;;;;;;;24.47;16.43;;;2.10;99.90;;;;;;5028064;28;20234;-76
2022/12/15 01:21:38;;;;;;;23.77;16.70;;;2.10;99.90;;;;;;5038288;28;20476;-75
2022/12/15 01:24:04;;;;;;;26.57;18.10;;;2.10;99.90;;;;;;5031433;28;20455;-76
2022/12/15 01:26:29;;;;;;;26.90;17.37;;;2.10;99.90;;;;;;5037654;28;20212;-76
2022/12/15 01:28:55;;;;;;;27.20;16.27;;;2.00;99.90;;;;;;5034575;28;20977;-76
2022/12/15 01:31:20;;;;;;;27.60;18.07;;;2.00;99.90;;;;;;5032751;28;20218;-76
2022/12/15 01:33:46;;;;;;;30.80;18.27;;;2.10;99.90;;;;;;5034615;28;20249;-76
2022/12/15 01:36:12;;;;;;;32.37;18.30;;;2.00;99.90;;;;;;5010802;28;20275;-77
2022/12/15 01:38:38;;;;;;;27.47;18.37;;;2.00;99.90;;;;;;5031754;28;20201;-75
2022/12/15 01:41:11;;;;;;;26.27;16.50;;;2.00;99.90;;;;;;5034644;28;20463;-76
2022/12/15 01:43:39;;;;;;;42.47;19.33;;;2.10;99.90;;;;;;5032825;28;20199;-75
2022/12/15 01:46:07;;;;;;;24.77;17.50;;;2.10;99.90;;;;;;5036344;28;20475;-74
2022/12/15 01:48:41;;;;;;;25.10;17.83;;;2.10;99.90;;;;;;5033544;28;20816;-75
2022/12/15 01:51:12;;;;;;;27.20;17.10;;;2.00;99.90;;;;;;5032736;28;20438;-75
2022/12/15 01:53:54;;;;;;;26.37;17.77;;;2.00;99.90;;;;;;5032505;28;20839;-76
2022/12/15 01:56:22;;;;;;;30.10;17.07;;;2.00;99.90;;;;;;5031046;28;20434;-75
2022/12/15 01:58:50;;;;;;;24.87;16.10;;;2.10;99.90;;;;;;5038915;28;20445;-75
2022/12/15 02:01:16;;;;;;;22.40;15.60;;;2.00;99.90;;;;;;5021123;28;20894;-75
2022/12/15 02:03:43;;;;;;;28.67;17.53;;;2.10;99.90;;;;;;5039750;28;20917;-76
2022/12/15 02:06:10;;;;;;;30.43;18.50;;;2.00;99.90;;;;;;5036613;28;20184;-76
2022/12/15 02:08:36;;;;;;;28.13;18.00;;;2.00;99.90;;;;;;5030244;28;20572;-76
2022/12/15 02:11:21;;;;;;;28.20;19.00;;;2.00;99.90;;;;;;5030506;28;20470;-77
2022/12/15 02:14:00;;;;;;;31.47;19.83;;;2.00;99.90;;;;;;5033428;28;20477;-76
2022/12/15 02:16:59;;;;;;;31.63;18.50;;;2.00;99.90;;;;;;5036835;28;20421;-76
2022/12/15 02:19:43;;;;;;;27.77;17.30;;;2.00;99.90;;;;;;5032913;28;20433;-76
2022/12/15 02:22:47;;;;;;;23.77;16.97;;;2.00;99.90;;;;;;5031717;28;20480;-76
2022/12/15 02:25:37;;;;;;;27.87;17.00;;;2.00;99.90;;;;;;5028738;28;20901;-76
2022/12/15 02:28:10;;;;;;;27.93;18.13;;;2.00;99.90;;;;;;5035219;28;20531;-76
2022/12/15 02:33:59;;;;;;;26.43;16.40;;;2.00;99.90;;;;;;5028661;28;20450;-77
2022/12/15 02:36:36;;;;;;;25.00;16.13;;;2.00;99.90;;;;;;5032227;28;20444;-76
2022/12/15 02:39:03;;;;;;;26.20;17.93;;;2.00;99.90;;;;;;5035443;28;20961;-76
2022/12/15 02:41:41;;;;;;;31.57;19.90;;;2.00;99.90;;;;;;5033721;28;20458;-77
2022/12/15 02:44:29;;;;;;;29.93;18.20;;;2.00;99.90;;;;;;5035093;28;20469;-76
2022/12/15 02:47:18;;;;;;;29.00;17.60;;;2.00;99.90;;;;;;5029743;28;20917;-76
2022/12/15 02:50:00;;;;;;;28.50;17.33;;;2.00;99.90;;;;;;5032427;28;20433;-76
2022/12/15 02:52:50;;;;;;;27.13;17.07;;;2.00;99.90;;;;;;5028800;28;20516;-76
2022/12/15 02:55:37;;;;;;;25.97;16.23;;;2.00;99.90;;;;;;5032071;28;20457;-76
2022/12/15 02:58:44;;;;;;;34.40;18.13;;;2.00;99.90;;;;;;5033422;28;20440;-76
2022/12/15 03:01:13;;;;;;;25.47;17.37;;;2.00;99.90;;;;;;5033882;28;20954;-76
2022/12/15 03:03:40;;;;;;;26.10;17.17;;;2.10;99.90;;;;;;5035209;28;20453;-76
2022/12/15 03:06:06;;;;;;;31.63;19.60;;;2.00;99.90;;;;;;5030640;28;20515;-76
2022/12/15 03:08:31;;;;;;;30.13;18.90;;;2.00;99.90;;;;;;5032379;28;20852;-75
2022/12/15 03:10:58;;;;;;;29.10;19.37;;;2.00;99.90;;;;;;5028872;28;20615;-74
2022/12/15 03:13:24;;;;;;;27.90;17.83;;;2.00;99.90;;;;;;5034419;28;20584;-75
2022/12/15 03:15:51;;;;;;;30.27;18.63;;;2.00;99.90;;;;;;5029519;28;20435;-76
2022/12/15 03:18:16;;;;;;;30.53;18.80;;;2.00;99.90;;;;;;5027278;28;20915;-77
2022/12/15 03:20:42;;;;;;;26.00;17.30;;;2.00;99.90;;;;;;5032272;28;20557;-76
2022/12/15 03:23:07;;;;;;;25.47;16.13;;;2.00;99.90;;;;;;5034780;28;20342;-76
2022/12/15 03:25:33;;;;;;;29.80;18.80;;;2.00;99.90;;;;;;5035860;28;20560;-75
2022/12/15 03:27:58;;;;;;;34.13;18.97;;;2.00;99.90;;;;;;5029563;28;20179;-76
2022/12/15 03:30:25;;;;;;;31.70;19.07;;;2.00;99.90;;;;;;5031264;28;20184;-75
2022/12/15 03:32:50;;;;;;;30.80;17.03;;;2.00;99.90;;;;;;5031740;28;20503;-76
2022/12/15 03:35:16;;;;;;;29.33;19.70;;;2.00;99.90;;;;;;5010178;28;20287;-77
2022/12/15 03:37:41;;;;;;;29.03;18.23;;;2.00;99.90;;;;;;5033681;28;20854;-76
2022/12/15 03:40:08;;;;;;;26.43;17.20;;;2.00;99.90;;;;;;5030452;28;20267;-77
2022/12/15 03:42:49;;;;;;;28.27;17.93;;;2.00;99.90;;;;;;5033341;28;20209;-77
2022/12/15 03:45:20;;;;;;;27.73;17.67;;;2.00;99.90;;;;;;5025872;28;21800;-77
2022/12/15 03:47:46;;;;;;;29.77;18.47;;;2.00;99.90;;;;;;5033616;28;20429;-76
2022/12/15 03:50:13;;;;;;;24.47;17.00;;;2.00;99.90;;;;;;5026432;28;20436;-75
2022/12/15 03:52:38;;;;;;;27.83;18.67;;;1.90;99.90;;;;;;5028046;28;20477;-74
2022/12/15 03:55:06;;;;;;;30.37;18.47;;;1.90;99.90;;;;;;5029076;28;20579;-74
2022/12/15 03:57:32;;;;;;;32.93;20.03;;;1.90;99.90;;;;;;5035143;28;20184;-75
2022/12/15 03:59:57;;;;;;;28.70;19.10;;;1.90;99.90;;;;;;5027465;28;20473;-74
2022/12/15 04:02:23;;;;;;;27.77;16.53;;;1.90;99.90;;;;;;5032702;28;20219;-74
2022/12/15 04:04:48;;;;;;;29.43;18.60;;;1.90;99.90;;;;;;5030143;28;20196;-74
2022/12/15 04:07:14;;;;;;;32.03;18.10;;;2.00;99.90;;;;;;5013996;28;20214;-75
2022/12/15 04:09:40;;;;;;;29.30;17.50;;;1.90;99.90;;;;;;5027772;28;20183;-76
2022/12/15 04:12:06;;;;;;;27.53;17.87;;;1.90;99.90;;;;;;5029019;28;20190;-75
2022/12/15 04:14:32;;;;;;;27.43;18.80;;;1.90;99.90;;;;;;5028527;28;20477;-76
2022/12/15 04:16:58;;;;;;;26.23;17.90;;;1.90;99.90;;;;;;5027387;28;20583;-75
2022/12/15 04:22:07;;;;;;;29.10;18.43;;;1.90;99.90;;;;;;5030729;28;20204;-77
2022/12/15 05:33:10;;;;;;;30.33;17.83;;;1.80;99.90;;;;;;5037814;28;21085;-76
2022/12/15 05:35:35;;;;;;;31.63;17.90;;;1.80;99.90;;;;;;5036824;28;20833;-75
2022/12/15 05:38:01;;;;;;;34.80;18.57;;;1.80;99.90;;;;;;5035099;28;20202;-76
2022/12/15 05:40:26;;;;;;;27.77;18.33;;;1.80;99.90;;;;;;5035665;28;20211;-78
2022/12/15 05:42:52;;;;;;;29.70;17.33;;;1.80;99.90;;;;;;5036026;28;20575;-78
2022/12/15 05:45:17;;;;;;;26.80;16.90;;;1.80;99.90;;;;;;5032297;28;20869;-75
2022/12/15 05:47:43;;;;;;;30.27;17.73;;;1.80;99.90;;;;;;5035186;28;20666;-75
2022/12/15 05:50:09;;;;;;;34.47;21.90;;;1.80;99.90;;;;;;5030219;28;20178;-77
2022/12/15 05:52:34;;;;;;;32.27;17.80;;;1.80;99.90;;;;;;5035047;28;20574;-77
2022/12/15 05:55:00;;;;;;;29.03;17.87;;;1.90;99.90;;;;;;5020407;28;20214;-76
2022/12/15 05:57:25;;;;;;;30.33;18.43;;;1.90;99.90;;;;;;5019035;28;20187;-77
2022/12/15 05:59:51;;;;;;;33.93;19.97;;;1.90;99.90;;;;;;5037462;28;20184;-76
2022/12/15 06:02:16;;;;;;;28.50;17.73;;;1.90;99.90;;;;;;5033043;28;20207;-77
2022/12/15 06:04:42;;;;;;;28.40;17.60;;;1.90;99.90;;;;;;5039616;28;20284;-78
2022/12/15 06:07:08;;;;;;;29.83;18.30;;;1.90;99.90;;;;;;5030523;28;20635;-78
2022/12/15 06:09:33;;;;;;;30.83;20.17;;;1.90;99.90;;;;;;5036990;28;20921;-78
2022/12/15 06:11:59;;;;;;;24.73;17.27;;;1.90;99.90;;;;;;5033341;28;20277;-78
2022/12/15 06:14:24;;;;;;;31.13;19.40;;;1.90;99.90;;;;;;5037637;28;20222;-80
2022/12/15 06:16:50;;;;;;;33.17;18.60;;;1.90;99.90;;;;;;5036140;28;20564;-79
2022/12/15 06:19:15;;;;;;;37.40;20.90;;;1.90;99.90;;;;;;5037270;28;20179;-78
2022/12/15 06:21:41;;;;;;;32.00;19.93;;;1.90;99.90;;;;;;5036489;28;20238;-78
2022/12/15 06:24:07;;;;;;;34.40;20.30;;;1.90;99.90;;;;;;5036003;28;20208;-79
2022/12/15 06:26:34;;;;;;;31.77;19.03;;;1.90;99.90;;;;;;5036056;28;20177;-78
2022/12/15 06:29:02;;;;;;;28.20;18.90;;;1.90;99.90;;;;;;5034908;28;20180;-78
2022/12/15 06:31:29;;;;;;;30.40;17.97;;;2.00;99.90;;;;;;5016658;28;20453;-78
2022/12/15 06:33:55;;;;;;;31.47;19.37;;;1.90;99.90;;;;;;5038544;28;21075;-78
2022/12/15 06:36:24;;;;;;;32.43;19.20;;;1.90;99.90;;;;;;5032671;28;20431;-78
2022/12/15 06:38:51;;;;;;;31.87;19.77;;;1.90;99.90;;;;;;5037652;28;20430;-78
2022/12/15 06:41:19;;;;;;;33.97;20.50;;;1.90;99.90;;;;;;5033539;28;20463;-78
2022/12/15 06:43:49;;;;;;;32.40;19.43;;;1.90;99.90;;;;;;5035531;28;20465;-77
2022/12/15 06:46:15;;;;;;;34.50;19.80;;;1.90;99.90;;;;;;5034552;28;20440;-78
2022/12/15 06:48:43;;;;;;;25.63;17.07;;;1.90;99.90;;;;;;5038965;28;20949;-76
2022/12/15 06:51:09;;;;;;;35.20;19.27;;;1.90;99.90;;;;;;5031991;28;20208;-75
2022/12/15 06:53:37;;;;;;;31.37;18.40;;;1.90;99.90;;;;;;5037653;28;20527;-76
2022/12/15 06:56:06;;;;;;;32.20;18.80;;;1.90;99.90;;;;;;5037607;28;20477;-76
2022/12/15 06:58:33;;;;;;;35.07;20.17;;;1.90;99.90;;;;;;5037541;28;20438;-77
2022/12/15 07:01:06;;;;;;;35.07;20.70;;;1.90;99.90;;;;;;5036267;28;21088;-76
2022/12/15 07:03:33;;;;;;;30.90;19.87;;;1.90;99.90;;;;;;5032450;28;20462;-76
2022/12/15 07:06:05;;;;;;;32.73;18.77;;;1.90;99.90;;;;;;5036443;28;20926;-76
2022/12/15 07:08:30;;;;;;;39.87;21.53;;;1.90;99.90;;;;;;5035343;28;20446;-78
2022/12/15 07:10:56;;;;;;;38.90;20.03;;;1.90;99.90;;;;;;5039812;28;20473;-77
2022/12/15 07:13:22;;;;;;;34.73;20.20;;;1.90;99.90;;;;;;5033190;28;20565;-78
2022/12/15 07:15:48;;;;;;;35.10;19.67;;;1.90;99.90;;;;;;5034985;28;20184;-78
2022/12/15 07:18:15;;;;;;;33.20;19.80;;;1.90;99.90;;;;;;5033066;28;20448;-77
2022/12/15 07:20:41;;;;;;;33.40;20.37;;;1.80;99.90;;;;;;5020390;28;20548;-77
2022/12/15 07:23:08;;;;;;;36.97;20.30;;;1.90;99.90;;;;;;5032834;28;20519;-77
2022/12/15 07:25:38;;;;;;;34.20;20.30;;;1.90;99.90;;;;;;5035443;28;20458;-77
2022/12/15 07:28:04;;;;;;;37.33;19.20;;;1.80;99.90;;;;;;5015869;28;20453;-77
2022/12/15 07:30:31;;;;;;;33.57;21.10;;;1.90;99.90;;;;;;5033876;28;20469;-77
2022/12/15 07:32:56;;;;;;;32.17;19.33;;;1.90;99.90;;;;;;5033926;28;21198;-77
2022/12/15 07:35:22;;;;;;;32.57;20.00;;;1.80;99.90;;;;;;5035131;28;20493;-78
2022/12/15 07:37:48;;;;;;;30.77;19.00;;;1.80;99.90;;;;;;5031280;28;20184;-77
2022/12/15 07:40:13;;;;;;;32.00;21.77;;;1.80;99.90;;;;;;5034477;28;20289;-78
2022/12/15 07:42:39;;;;;;;35.83;19.47;;;1.80;99.90;;;;;;5034470;28;20784;-77
2022/12/15 07:45:06;;;;;;;31.23;18.57;;;1.80;99.90;;;;;;5036569;28;20296;-77
2022/12/15 07:47:32;;;;;;;28.57;19.27;;;1.80;99.90;;;;;;5020044;28;20180;-78
2022/12/15 07:49:58;;;;;;;36.77;20.77;;;1.80;99.90;;;;;;5031796;28;20450;-77
2022/12/15 07:52:24;;;;;;;33.70;21.50;;;1.80;99.90;;;;;;5027571;28;20910;-77
2022/12/15 07:54:50;;;;;;;34.00;20.03;;;1.80;99.90;;;;;;5036444;28;20526;-78
2022/12/15 07:57:16;;;;;;;36.90;21.97;;;1.90;99.90;;;;;;5034756;28;20473;-76
2022/12/15 07:59:41;;;;;;;37.57;21.00;;;1.90;99.90;;;;;;5034971;28;20473;-77
2022/12/15 08:02:11;;;;;;;33.10;21.30;;;1.90;99.90;;;;;;5033262;28;20205;-77
2022/12/15 08:04:37;;;;;;;33.23;20.53;;;1.90;99.90;;;;;;5036731;28;20822;-77
2022/12/15 08:07:03;;;;;;;40.23;21.53;;;1.90;99.90;;;;;;5034602;28;20445;-77
2022/12/15 08:09:30;;;;;;;43.13;25.10;;;2.00;99.90;;;;;;5035230;28;20434;-77
2022/12/15 08:11:56;;;;;;;37.13;22.90;;;2.00;99.90;;;;;;5030104;28;20441;-77
2022/12/15 08:14:21;;;;;;;34.70;21.40;;;2.00;99.90;;;;;;5036862;28;20515;-77
2022/12/15 08:16:47;;;;;;;42.70;22.90;;;2.00;99.90;;;;;;5034077;28;20234;-76
2022/12/15 08:19:14;;;;;;;35.53;20.93;;;2.00;99.90;;;;;;5032320;28;20180;-77
2022/12/15 08:21:40;;;;;;;33.43;20.87;;;2.00;99.90;;;;;;5033655;28;20204;-76
2022/12/15 08:24:07;;;;;;;31.80;19.17;;;2.00;99.90;;;;;;5037725;28;20826;-76
2022/12/15 08:26:34;;;;;;;39.83;21.57;;;2.00;99.90;;;;;;5036534;28;20516;-77
2022/12/15 08:29:09;;;;;;;32.10;18.47;;;2.00;99.90;;;;;;5035506;28;20535;-74
2022/12/15 08:31:35;;;;;;;34.00;20.50;;;1.90;99.90;;;;;;5032425;28;20936;-76
2022/12/15 08:34:02;;;;;;;34.90;20.00;;;2.00;99.90;;;;;;5030831;28;20872;-75
2022/12/15 08:36:28;;;;;;;36.70;21.00;;;1.90;99.90;;;;;;5027854;28;21977;-76
2022/12/15 08:38:56;;;;;;;37.60;21.33;;;1.90;99.90;;;;;;5034693;28;21308;-74
2022/12/15 08:41:26;;;;;;;39.40;20.67;;;1.90;99.90;;;;;;5031224;28;20211;-76
2022/12/15 08:43:53;;;;;;;35.30;20.57;;;1.90;99.90;;;;;;5029286;28;20469;-76
2022/12/15 08:46:31;;;;;;;39.40;20.70;;;1.90;99.90;;;;;;5031880;28;20444;-76
2022/12/15 08:48:57;;;;;;;35.00;23.57;;;1.80;99.90;;;;;;5030164;28;20466;-77
2022/12/15 08:51:25;;;;;;;37.37;21.97;;;1.90;99.90;;;;;;5028881;28;20475;-76
2022/12/15 08:53:51;;;;;;;32.10;21.50;;;1.90;99.90;;;;;;5026769;28;20294;-76
2022/12/15 08:56:20;;;;;;;33.30;20.67;;;1.90;99.90;;;;;;5030854;28;20557;-77
2022/12/15 08:58:47;;;;;;;35.00;20.63;;;1.90;99.90;;;;;;5037556;28;20575;-76
2022/12/15 09:01:17;;;;;;;28.90;20.70;;;2.00;99.90;;;;;;5028847;28;20923;-77
2022/12/15 09:03:44;;;;;;;39.50;21.10;;;2.10;99.90;;;;;;5026314;28;20969;-76
2022/12/15 09:06:18;;;;;;;32.60;20.07;;;2.10;99.90;;;;;;5031222;28;21959;-77
2022/12/15 09:08:44;;;;;;;40.13;21.50;;;2.10;99.90;;;;;;5029529;28;20438;-77
2022/12/15 09:11:10;;;;;;;34.30;22.03;;;2.10;99.90;;;;;;5010480;28;20456;-77
2022/12/15 09:13:37;;;;;;;37.30;22.93;;;2.10;99.90;;;;;;5027698;28;20749;-77
2022/12/15 09:16:06;;;;;;;34.70;22.30;;;2.10;99.90;;;;;;5028541;28;20900;-78
2022/12/15 09:18:32;;;;;;;39.50;22.27;;;2.10;99.90;;;;;;5024819;28;20442;-77
2022/12/15 09:21:03;;;;;;;37.57;21.00;;;2.00;99.90;;;;;;5030205;28;20477;-77
2022/12/15 09:23:28;;;;;;;33.67;21.50;;;2.10;99.90;;;;;;5032507;28;20503;-77
2022/12/15 09:26:06;;;;;;;31.00;20.50;;;2.10;99.90;;;;;;5033092;28;20415;-76
2022/12/15 09:28:32;;;;;;;34.90;21.63;;;2.10;99.90;;;;;;5031282;28;20188;-76
2022/12/15 09:31:11;;;;;;;38.50;20.73;;;2.10;99.90;;;;;;5034451;28;20454;-75
2022/12/15 09:33:38;;;;;;;38.80;21.07;;;2.10;99.90;;;;;;5027342;28;20466;-74
2022/12/15 09:36:05;;;;;;;37.73;22.03;;;2.10;99.90;;;;;;5040772;28;20444;-74
2022/12/15 09:38:33;;;;;;;35.80;21.90;;;2.10;99.90;;;;;;5035316;28;20446;-75
2022/12/15 09:41:11;;;;;;;33.50;19.83;;;2.00;99.90;;;;;;5038203;28;20958;-76
2022/12/15 09:43:40;;;;;;;30.23;21.40;;;2.00;99.90;;;;;;5039161;28;20472;-76
2022/12/15 09:46:47;;;;;;;34.90;21.13;;;2.00;99.90;;;;;;5040936;28;20632;-76
2022/12/15 09:49:42;;;;;;;40.80;22.20;;;2.00;99.90;;;;;;4979020;28;20451;-76
2022/12/15 09:52:31;;;;;;;35.30;21.80;;;2.00;99.90;;;;;;5031961;28;20763;-76
2022/12/15 09:55:00;;;;;;;45.40;23.10;;;2.00;99.90;;;;;;5031136;28;20466;-76
2022/12/15 09:57:25;;;;;;;34.57;21.10;;;2.00;99.90;;;;;;5032295;28;20460;-73
2022/12/15 09:59:58;;;;;;;37.03;21.93;;;2.00;99.90;;;;;;5034914;28;20430;-76
2022/12/15 10:02:54;;;;;;;38.17;22.20;;;2.00;99.90;;;;;;5035467;28;20604;-76
2022/12/15 10:05:32;;;;;;;35.87;21.90;;;2.00;99.90;;;;;;5035406;28;20771;-75
2022/12/15 10:07:59;;;;;;;34.00;21.77;;;2.10;99.90;;;;;;5032260;28;20483;-76
2022/12/15 10:10:37;;;;;;;35.23;21.27;;;2.10;99.90;;;;;;5034144;28;20810;-74
2022/12/15 10:13:13;;;;;;;39.70;24.47;;;2.10;99.90;;;;;;5033962;28;20444;-74
2022/12/15 10:15:52;;;;;;;35.23;22.00;;;2.10;99.90;;;;;;5032706;28;20473;-74
2022/12/15 10:18:26;;;;;;;39.33;23.63;;;2.10;99.90;;;;;;5034039;28;20439;-75
2022/12/15 10:20:53;;;;;;;37.57;22.97;;;2.20;99.90;;;;;;5031786;28;20804;-74
2022/12/15 10:23:19;;;;;;;35.37;22.60;;;2.20;99.90;;;;;;5035426;28;20860;-74
2022/12/15 10:26:22;;;;;;;36.10;21.73;;;2.30;99.90;;;;;;5037094;28;20476;-77
2022/12/15 10:28:51;;;;;;;34.33;20.53;;;2.20;99.90;;;;;;5030154;28;20482;-73
2022/12/15 10:31:40;;;;;;;37.23;23.40;;;2.30;99.90;;;;;;5030166;28;20481;-74
2022/12/15 10:34:22;;;;;;;38.93;22.27;;;2.30;99.90;;;;;;5035032;28;20454;-74
2022/12/15 10:36:52;;;;;;;32.57;20.80;;;2.40;99.90;;;;;;5030924;28;20454;-75
2022/12/15 10:39:20;;;;;;;38.20;22.50;;;2.40;99.90;;;;;;5033858;28;20492;-75
2022/12/15 10:42:06;;;;;;;33.40;21.43;;;2.40;99.90;;;;;;5029578;28;20967;-75
2022/12/15 10:44:45;;;;;;;37.43;21.53;;;2.50;99.90;;;;;;5036386;28;20474;-77
2022/12/15 10:47:18;;;;;;;37.13;23.50;;;2.50;99.90;;;;;;5032581;28;20493;-76
2022/12/15 10:49:43;;;;;;;31.83;19.87;;;2.60;99.90;;;;;;5034570;28;20466;-76
2022/12/15 10:52:18;;;;;;;33.23;22.03;;;2.60;99.90;;;;;;5034179;28;20847;-75
2022/12/15 10:54:46;;;;;;;37.70;22.90;;;2.60;99.90;;;;;;5027942;28;20218;-75
2022/12/15 10:57:27;;;;;;;41.60;24.43;;;2.70;99.90;;;;;;5034300;28;21161;-75
2022/12/15 10:59:54;;;;;;;37.37;21.17;;;2.70;99.90;;;;;;5029188;28;20938;-75
2022/12/15 11:02:19;;;;;;;38.13;23.27;;;2.70;99.90;;;;;;5028969;28;20891;-76
2022/12/15 11:05:14;;;;;;;34.53;22.20;;;2.80;99.90;;;;;;5032542;28;20454;-74
2022/12/15 11:08:14;;;;;;;33.23;20.60;;;2.90;99.90;;;;;;5031771;28;20184;-75
2022/12/15 11:13:38;;;;;;;42.83;22.37;;;2.90;99.90;;;;;;5032090;28;20974;-74
2022/12/15 11:16:18;;;;;;;38.57;22.80;;;2.90;99.90;;;;;;5029189;28;20430;-74
2022/12/15 11:18:52;;;;;;;37.07;22.77;;;2.80;99.90;;;;;;5031631;28;21179;-74
2022/12/15 11:21:37;;;;;;;35.63;23.40;;;2.90;99.90;;;;;;5026537;28;22045;-75
2022/12/15 11:24:15;;;;;;;35.67;21.03;;;2.90;99.90;;;;;;5026235;28;20511;-76
2022/12/15 11:27:05;;;;;;;30.97;20.50;;;3.00;99.90;;;;;;5031075;28;20433;-77
2022/12/15 11:29:36;;;;;;;38.63;21.87;;;3.00;99.90;;;;;;5024055;28;20461;-75
2022/12/15 11:32:02;;;;;;;40.60;22.40;;;3.10;99.90;;;;;;5029722;28;20444;-77
2022/12/15 11:34:43;;;;;;;38.90;22.63;;;3.10;99.90;;;;;;5029447;28;20465;-75
2022/12/15 11:37:27;;;;;;;32.90;21.73;;;3.10;99.90;;;;;;5029628;28;20444;-75
2022/12/15 11:40:23;;;;;;;37.37;21.97;;;3.10;99.90;;;;;;5029000;28;20493;-76
2022/12/15 11:43:20;;;;;;;33.70;22.67;;;3.10;99.90;;;;;;5021410;28;21279;-75
2022/12/15 11:46:13;;;;;;;34.47;22.07;;;3.20;99.90;;;;;;5030909;28;20438;-76
2022/12/15 11:48:41;;;;;;;38.33;22.00;;;3.10;99.90;;;;;;5029138;28;20438;-76
2022/12/15 11:51:30;;;;;;;34.40;22.60;;;3.10;99.90;;;;;;5033994;28;20523;-77
2022/12/15 11:54:05;;;;;;;38.60;22.80;;;3.10;99.90;;;;;;5028675;28;20453;-78
2022/12/15 11:57:01;;;;;;;37.03;23.07;;;3.20;99.90;;;;;;5010105;28;20430;-80
2022/12/15 12:00:05;;;;;;;34.80;21.37;;;3.20;99.90;;;;;;5031592;28;20428;-78
2022/12/15 12:02:41;;;;;;;35.67;20.83;;;3.20;99.90;;;;;;5029757;28;20525;-78
2022/12/15 12:05:18;;;;;;;37.00;23.97;;;3.20;99.90;;;;;;5026327;28;20458;-76
2022/12/15 12:07:56;;;;;;;40.87;23.80;;;3.20;99.90;;;;;;5029289;28;21317;-76
2022/12/15 12:10:43;;;;;;;34.13;21.30;;;3.20;99.90;;;;;;5030768;28;20465;-76
2022/12/15 12:13:27;;;;;;;37.10;21.97;;;3.20;99.90;;;;;;5032564;28;20452;-76
2022/12/15 12:16:18;;;;;;;36.50;21.73;;;3.20;99.90;;;;;;5031791;28;20435;-75
2022/12/15 12:19:00;;;;;;;33.97;22.27;;;3.30;99.90;;;;;;5030094;28;20455;-75
2022/12/15 12:21:30;;;;;;;39.47;23.13;;;3.30;99.90;;;;;;5033062;28;20450;-76
2022/12/15 12:24:18;;;;;;;34.23;21.50;;;3.30;99.90;;;;;;5012198;28;21046;-77
2022/12/15 12:26:52;;;;;;;34.87;21.07;;;3.30;99.90;;;;;;5023389;28;20445;-76
2022/12/15 12:29:32;;;;;;;34.83;21.43;;;3.40;99.90;;;;;;5027520;28;20442;-76
2022/12/15 12:32:11;;;;;;;35.70;21.30;;;3.40;99.90;;;;;;5026010;28;20449;-75
2022/12/15 12:34:55;;;;;;;35.20;21.77;;;3.40;99.90;;;;;;5026832;28;20487;-78
2022/12/15 12:37:26;;;;;;;33.87;21.37;;;3.40;99.90;;;;;;5027615;28;20845;-78
2022/12/15 12:39:55;;;;;;;36.47;21.07;;;3.40;99.90;;;;;;5026595;28;20421;-78
2022/12/15 12:42:32;;;;;;;34.80;21.57;;;3.40;99.90;;;;;;5026608;28;20499;-76
2022/12/15 12:45:00;;;;;;;30.60;19.20;;;3.40;99.90;;;;;;5025754;28;20477;-75
2022/12/15 12:47:35;;;;;;;32.60;20.80;;;3.40;99.90;;;;;;5027947;28;21018;-75
2022/12/15 12:50:05;;;;;;;35.63;22.33;;;3.40;99.90;;;;;;5029057;28;20449;-73
2022/12/15 12:52:36;;;;;;;38.20;21.60;;;3.40;99.90;;;;;;5028944;28;20518;-75
2022/12/15 12:55:25;;;;;;;34.37;21.07;;;3.40;99.90;;;;;;5023085;28;20459;-75
2022/12/15 12:57:51;;;;;;;32.80;20.47;;;3.40;99.90;;;;;;5026096;28;20438;-75
2022/12/15 13:00:27;;;;;;;170.70;73.73;;;3.50;99.90;;;;;;5023439;28;20478;-74
2022/12/15 13:03:27;;;;;;;42.43;25.00;;;3.50;99.90;;;;;;5025605;28;21125;-74
2022/12/15 13:05:53;;;;;;;42.03;22.80;;;3.50;99.90;;;;;;4980963;28;21031;-74
2022/12/15 13:08:43;;;;;;;32.77;21.70;;;3.60;99.90;;;;;;5004129;28;20431;-74
2022/12/15 13:11:52;;;;;;;33.60;20.00;;;3.70;99.90;;;;;;5029626;28;20435;-75
2022/12/15 13:14:36;;;;;;;32.27;18.77;;;3.70;99.90;;;;;;5030030;28;20505;-74
2022/12/15 13:17:16;;;;;;;28.93;19.20;;;3.80;99.90;;;;;;5030946;28;20459;-74
2022/12/15 13:20:00;;;;;;;38.17;21.77;;;3.80;99.90;;;;;;5026945;28;20529;-76
2022/12/15 13:22:39;;;;;;;30.33;19.37;;;3.80;99.90;;;;;;5016988;28;20477;-73
2022/12/15 13:25:23;;;;;;;33.33;21.03;;;3.90;99.90;;;;;;5030091;28;20458;-75
2022/12/15 13:27:55;;;;;;;30.23;19.73;;;4.00;99.90;;;;;;5035579;28;20798;-76
2022/12/15 13:30:20;;;;;;;33.83;21.60;;;4.10;99.90;;;;;;5032281;28;20457;-74
2022/12/15 13:32:52;;;;;;;36.37;23.63;;;4.30;99.90;;;;;;5035546;28;21020;-74
2022/12/15 13:35:30;;;;;;;36.30;21.07;;;4.40;99.90;;;;;;5008942;28;20200;-73
2022/12/15 13:38:01;;;;;;;36.37;22.57;;;4.60;99.90;;;;;;5034393;28;20446;-73
2022/12/15 13:40:33;;;;;;;34.33;21.80;;;4.80;99.90;;;;;;5032246;28;20430;-74
2022/12/15 13:43:05;;;;;;;33.70;21.43;;;4.90;99.90;;;;;;5033600;28;20466;-73
2022/12/15 13:45:39;;;;;;;35.70;21.53;;;4.90;99.90;;;;;;5035098;28;20465;-73
2022/12/15 13:48:33;;;;;;;35.40;21.70;;;5.00;99.90;;;;;;5032417;28;20429;-74
2022/12/15 13:51:08;;;;;;;29.07;19.63;;;4.90;99.90;;;;;;4997685;28;20445;-75
2022/12/15 13:53:46;;;;;;;33.20;21.20;;;4.90;99.90;;;;;;5030985;28;20466;-75
2022/12/15 13:56:37;;;;;;;29.43;20.33;;;4.90;99.90;;;;;;5018557;28;20533;-74
2022/12/15 13:59:12;;;;;;;35.30;21.93;;;4.70;99.90;;;;;;5033064;28;20430;-75
2022/12/15 14:01:47;;;;;;;33.90;19.93;;;4.70;99.90;;;;;;5030472;28;20530;-75
2022/12/15 14:04:16;;;;;;;31.80;19.47;;;4.70;99.90;;;;;;5016952;28;20457;-75
2022/12/15 14:06:59;;;;;;;34.00;21.90;;;4.60;99.90;;;;;;5029164;28;20977;-77
2022/12/15 14:09:32;;;;;;;29.03;19.37;;;4.50;99.90;;;;;;5035651;28;20445;-76
2022/12/15 14:12:01;;;;;;;31.67;19.83;;;4.40;99.90;;;;;;5031894;28;20886;-77
2022/12/15 14:14:30;;;;;;;28.90;19.57;;;4.40;99.90;;;;;;5030744;28;20474;-74
2022/12/15 14:17:02;;;;;;;36.47;22.67;;;4.30;99.90;;;;;;5016838;28;20899;-74
2022/12/15 14:19:42;;;;;;;39.80;23.77;;;4.30;99.90;;;;;;5026971;28;20434;-74
2022/12/15 14:22:24;;;;;;;38.50;25.07;;;4.20;99.90;;;;;;5027851;28;20568;-75
2022/12/15 14:24:51;;;;;;;43.77;25.13;;;4.20;99.90;;;;;;5035023;28;20473;-74
2022/12/15 14:27:29;;;;;;;41.30;25.30;;;4.10;99.90;;;;;;5028915;28;20440;-73
2022/12/15 14:30:14;;;;;;;44.87;26.23;;;3.90;99.90;;;;;;5027677;28;20441;-75
2022/12/15 14:32:41;;;;;;;44.20;25.80;;;3.80;99.90;;;;;;5030616;28;20828;-74
2022/12/15 14:35:24;;;;;;;47.47;27.60;;;3.70;99.90;;;;;;5017747;28;20454;-73
2022/12/15 14:37:53;;;;;;;44.47;26.53;;;3.50;99.90;;;;;;5032810;28;20855;-74
2022/12/15 14:40:19;;;;;;;46.63;27.60;;;3.40;99.90;;;;;;5032696;28;21139;-73
2022/12/15 14:42:45;;;;;;;41.73;25.83;;;3.30;99.90;;;;;;5028932;28;20891;-74
2022/12/15 14:45:24;;;;;;;50.77;28.70;;;3.20;99.90;;;;;;5029190;28;21281;-74
2022/12/15 14:47:56;;;;;;;47.80;25.67;;;3.10;99.90;;;;;;5029508;28;20441;-74
2022/12/15 14:50:23;;;;;;;50.40;26.67;;;3.10;99.90;;;;;;5016031;28;20486;-74
2022/12/15 14:53:01;;;;;;;44.87;26.77;;;3.00;99.90;;;;;;5027506;28;21220;-74
2022/12/15 14:55:33;;;;;;;46.37;27.17;;;3.00;99.90;;;;;;5026465;28;20441;-75
2022/12/15 14:57:59;;;;;;;46.13;25.07;;;2.80;99.90;;;;;;5033335;28;20423;-74
2022/12/15 15:00:31;;;;;;;40.37;26.10;;;2.70;99.90;;;;;;5026869;28;20966;-74
2022/12/15 15:03:20;;;;;;;44.50;27.00;;;2.70;99.90;;;;;;5029248;28;20466;-74
2022/12/15 15:06:09;;;;;;;43.83;24.70;;;2.60;99.90;;;;;;5027885;28;20480;-73
2022/12/15 15:09:10;;;;;;;46.23;26.00;;;2.60;99.90;;;;;;5019192;28;20581;-75
2022/12/15 15:11:39;;;;;;;44.20;24.87;;;2.60;99.90;;;;;;4999540;28;20431;-75
2022/12/15 15:14:15;;;;;;;42.90;24.33;;;2.40;99.90;;;;;;5030409;28;20832;-76
2022/12/15 15:16:42;;;;;;;45.43;25.47;;;2.40;99.90;;;;;;5036528;28;20680;-75
2022/12/15 15:19:21;;;;;;;38.90;25.53;;;2.30;99.90;;;;;;5030372;28;20855;-75
2022/12/15 15:21:46;;;;;;;39.43;23.57;;;2.30;99.90;;;;;;5031306;28;20496;-75
2022/12/15 15:24:12;;;;;;;41.60;25.33;;;2.20;99.90;;;;;;5030960;28;20805;-74
2022/12/15 15:26:41;;;;;;;45.03;26.60;;;2.20;99.90;;;;;;5028669;28;21240;-74
2022/12/15 15:29:36;;;;;;;46.93;26.70;;;2.20;99.90;;;;;;5031430;28;20240;-75
2022/12/15 15:32:17;;;;;;;43.27;24.67;;;2.20;99.90;;;;;;5029155;28;20538;-76